Time;durP1;ratioP1;P1;durP2;ratioP2;P2;SDS_P1;SDS_P2;PMS_P1;PMS_P2;Temp;Humidity;BMP_temperature;BMP_pressure;BME280_temperature;BME280_humidity;BME280_pressure;Samples;Min_cycle;Max_cycle;Signal;HPM_P1;HPM_P2
2022/11/28 00:00:23;;;;;;;41.55;22.00;;;;;;;6.41;100.00;100857.94;4916878;29;20059;-37
2022/11/28 00:02:48;;;;;;;42.45;22.48;;;;;;;6.41;100.00;100860.63;4916497;29;20036;-39
2022/11/28 00:05:13;;;;;;;44.25;21.55;;;;;;;6.43;100.00;100861.31;4916643;29;20476;-39
2022/11/28 00:07:39;;;;;;;47.67;22.83;;;;;;;6.45;100.00;100853.97;4916651;29;20107;-37
2022/11/28 00:10:06;;;;;;;39.92;21.60;;;;;;;6.48;100.00;100849.16;4916784;29;20059;-38
2022/11/28 00:12:33;;;;;;;49.97;23.13;;;;;;;6.51;100.00;100845.34;4914441;29;20039;-39
2022/11/28 00:14:58;;;;;;;43.67;22.60;;;;;;;6.54;100.00;100837.00;4898299;29;20080;-37
2022/11/28 00:17:23;;;;;;;41.35;21.90;;;;;;;6.56;100.00;100829.66;4897665;29;20466;-36
2022/11/28 00:19:49;;;;;;;39.70;22.10;;;;;;;6.57;100.00;100834.00;4898049;29;20028;-37
2022/11/28 00:22:14;;;;;;;44.90;24.08;;;;;;;6.59;100.00;100826.69;4911481;29;20058;-38
2022/11/28 00:24:39;;;;;;;42.95;23.75;;;;;;;6.61;100.00;100835.38;4916567;29;20400;-38
2022/11/28 00:27:05;;;;;;;48.53;23.50;;;;;;;6.62;100.00;100841.56;4916441;29;20115;-37
2022/11/28 00:29:30;;;;;;;51.58;25.83;;;;;;;6.62;100.00;100847.75;4914470;29;20047;-38
2022/11/28 00:31:55;;;;;;;49.00;24.95;;;;;;;6.65;100.00;100843.94;4908340;29;20420;-39
2022/11/28 00:34:21;;;;;;;48.28;24.00;;;;;;;6.67;100.00;100848.13;4915926;29;20132;-37
2022/11/28 00:36:46;;;;;;;46.78;24.77;;;;;;;6.68;100.00;100847.13;4898760;29;20080;-37
2022/11/28 00:39:12;;;;;;;49.17;25.05;;;;;;;6.70;100.00;100833.59;4916185;29;20059;-37
2022/11/28 00:41:37;;;;;;;44.97;24.70;;;;;;;6.71;100.00;100840.63;4915799;29;20036;-38
2022/11/28 00:44:03;;;;;;;51.45;24.52;;;;;;;6.75;100.00;100844.66;4916081;29;20036;-38
2022/11/28 00:46:28;;;;;;;51.10;25.55;;;;;;;6.76;100.00;100832.97;4913561;29;20034;-36
2022/11/28 00:48:54;;;;;;;46.78;24.70;;;;;;;6.78;100.00;100823.78;4911867;29;20560;-38
2022/11/28 00:51:22;;;;;;;50.47;26.25;;;;;;;6.80;100.00;100819.13;4903548;29;20559;-40
2022/11/28 00:53:49;;;;;;;52.72;25.00;;;;;;;6.82;100.00;100821.66;4915853;29;20039;-38
2022/11/28 00:56:17;;;;;;;49.20;26.20;;;;;;;6.88;100.00;100820.19;4915974;29;20084;-40
2022/11/28 00:58:42;;;;;;;50.58;24.92;;;;;;;6.87;100.00;100818.47;4915830;29;20047;-37
2022/11/28 01:01:14;;;;;;;49.83;24.83;;;;;;;6.94;100.00;100819.53;4915083;29;20040;-37
2022/11/28 01:03:40;;;;;;;53.58;24.38;;;;;;;6.91;100.00;100814.50;4912604;29;20028;-38
2022/11/28 01:06:05;;;;;;;48.40;23.85;;;;;;;6.91;100.00;100817.19;4906424;29;20079;-36
2022/11/28 01:08:31;;;;;;;45.75;23.98;;;;;;;6.92;100.00;100810.81;4915457;29;20503;-36
2022/11/28 01:10:56;;;;;;;48.10;23.33;;;;;;;6.95;100.00;100807.81;4915198;29;20396;-37
2022/11/28 01:13:22;;;;;;;51.30;24.25;;;;;;;6.96;100.00;100809.50;4915527;29;20028;-36
2022/11/28 01:15:47;;;;;;;45.70;23.35;;;;;;;6.99;100.00;100806.50;4915572;29;20032;-37
2022/11/28 01:18:12;;;;;;;50.83;23.63;;;;;;;7.01;100.00;100809.88;4915372;29;20402;-36
2022/11/28 01:20:37;;;;;;;48.80;22.85;;;;;;;7.03;100.00;100802.53;4913601;29;20425;-37
2022/11/28 01:23:03;;;;;;;45.65;22.60;;;;;;;7.04;100.00;100798.84;4915149;29;20038;-36
2022/11/28 01:25:29;;;;;;;50.15;22.25;;;;;;;7.08;100.00;100797.50;4915392;29;20055;-38
2022/11/28 01:27:54;;;;;;;45.83;21.92;;;;;;;7.06;100.00;100796.00;4915317;29;20032;-36
2022/11/28 01:30:19;;;;;;;51.33;22.85;;;;;;;7.09;100.00;100790.34;4914842;29;20092;-37
2022/11/28 01:32:45;;;;;;;48.15;22.77;;;;;;;7.09;100.00;100791.19;4914756;29;20032;-37
2022/11/28 01:35:10;;;;;;;49.70;23.02;;;;;;;7.10;100.00;100798.19;4914634;29;20052;-37
2022/11/28 01:37:35;;;;;;;45.90;22.50;;;;;;;7.13;100.00;100803.22;4913265;29;20035;-36
2022/11/28 01:40:01;;;;;;;44.88;21.92;;;;;;;7.14;100.00;100788.88;4913713;29;20028;-39
2022/11/28 01:42:26;;;;;;;47.20;22.27;;;;;;;7.16;100.00;100794.03;4914676;29;20036;-36
2022/11/28 01:44:51;;;;;;;45.92;21.13;;;;;;;7.18;100.00;100794.72;4914884;29;20114;-37
2022/11/28 01:47:20;;;;;;;42.50;22.15;;;;;;;7.16;100.00;100792.22;4915006;29;20039;-36
2022/11/28 01:49:46;;;;;;;55.45;22.58;;;;;;;7.20;100.00;100803.44;4897948;29;20024;-37
2022/11/28 01:52:14;;;;;;;50.58;23.42;;;;;;;7.21;100.00;100799.75;4914338;29;20024;-35
2022/11/28 01:54:41;;;;;;;52.30;22.65;;;;;;;7.22;100.00;100788.91;4893090;29;20056;-35
2022/11/28 01:57:10;;;;;;;52.53;24.00;;;;;;;7.25;100.00;100783.22;4910122;29;20084;-35
2022/11/28 01:59:42;;;;;;;50.78;23.42;;;;;;;7.25;100.00;100780.53;4894026;29;20114;-34
2022/11/28 02:02:12;;;;;;;51.80;22.33;;;;;;;7.26;100.00;100782.19;4897438;29;20039;-34
2022/11/28 02:04:37;;;;;;;51.97;23.52;;;;;;;7.28;100.00;100778.53;4897482;29;20051;-35
2022/11/28 02:07:03;;;;;;;49.05;23.10;;;;;;;7.29;100.00;100785.56;4897545;29;20484;-36
2022/11/28 02:09:28;;;;;;;51.25;23.38;;;;;;;7.32;100.00;100790.59;4914697;29;20063;-38
2022/11/28 02:12:28;;;;;;;54.63;23.25;;;;;;;7.33;100.00;100781.56;4909622;29;20480;-38
2022/11/28 02:15:19;;;;;;;53.05;22.58;;;;;;;7.33;100.00;100782.41;4897776;29;20028;-38
2022/11/28 02:17:52;;;;;;;54.88;23.35;;;;;;;7.36;100.00;100786.59;4897602;29;20104;-37
2022/11/28 02:20:26;;;;;;;54.60;23.20;;;;;;;7.36;100.00;100784.75;4897271;29;20119;-38
2022/11/28 02:22:58;;;;;;;53.70;24.98;;;;;;;7.37;100.00;100785.59;4914160;29;20036;-37
2022/11/28 02:26:02;;;;;;;48.15;23.45;;;;;;;7.38;100.00;100785.44;4914557;29;20032;-39
2022/11/28 02:28:52;;;;;;;54.03;23.73;;;;;;;7.40;100.00;100771.91;4902543;29;20068;-39
2022/11/28 02:31:39;;;;;;;56.03;24.42;;;;;;;7.41;100.00;100773.56;4903342;29;20377;-37
2022/11/28 02:34:24;;;;;;;51.87;24.10;;;;;;;7.42;100.00;100780.59;4914187;29;20055;-39
2022/11/28 02:36:58;;;;;;;54.97;23.23;;;;;;;7.44;100.00;100782.09;4895687;29;20064;-37
2022/11/28 02:39:27;;;;;;;48.45;22.48;;;;;;;7.45;100.00;100774.91;4909728;29;20033;-39
2022/11/28 02:42:11;;;;;;;48.40;23.20;;;;;;;7.45;100.00;100775.75;4912938;29;20059;-38
2022/11/28 02:44:39;;;;;;;50.00;22.70;;;;;;;7.46;100.00;100768.56;4893822;29;20489;-37
2022/11/28 02:47:07;;;;;;;;;;;;;;;7.48;100.00;100777.28;4884154;29;20073;-38
2022/11/28 02:49:36;;;;;;;46.25;21.27;;;;;;;7.50;100.00;100783.28;4896989;29;19915;-38
2022/11/28 02:52:41;;;;;;;49.63;22.77;;;;;;;7.50;100.00;100780.59;4896656;29;20032;-38
2022/11/28 02:55:07;;;;;;;55.17;25.00;;;;;;;7.53;100.00;100774.06;4880976;29;20032;-36
2022/11/28 02:57:47;;;;;;;52.92;24.50;;;;;;;7.51;100.00;100771.59;4913734;29;20032;-38
2022/11/28 03:00:31;;;;;;;58.53;26.10;;;;;;;7.53;100.00;100787.47;4913569;29;20044;-39
2022/11/28 03:03:12;;;;;;;59.78;24.98;;;;;;;7.54;100.00;100776.59;4908626;29;20027;-38
2022/11/28 03:05:57;;;;;;;55.85;25.35;;;;;;;7.56;100.00;100771.94;4894961;29;20068;-39
2022/11/28 03:09:00;;;;;;;62.75;27.73;;;;;;;7.57;100.00;100772.75;4909641;29;20039;-37
2022/11/28 03:11:52;;;;;;;60.15;26.63;;;;;;;7.57;100.00;100773.59;4912934;29;20163;-36
2022/11/28 03:14:37;;;;;;;57.65;26.85;;;;;;;7.65;100.00;100776.28;4917657;29;20439;-36
2022/11/28 03:17:09;;;;;;;58.42;26.90;;;;;;;7.62;100.00;100771.25;4900597;29;20119;-37
2022/11/28 03:19:48;;;;;;;64.28;29.30;;;;;;;7.61;100.00;100772.28;4915223;29;20036;-35
2022/11/28 03:22:40;;;;;;;58.83;27.10;;;;;;;7.61;100.00;100772.28;4925125;29;20063;-35
2022/11/28 03:25:30;;;;;;;65.88;29.42;;;;;;;7.63;100.00;100769.41;4900252;29;20063;-35
2022/11/28 03:28:19;;;;;;;68.70;29.15;;;;;;;7.64;100.00;100768.44;4917504;29;20111;-36
2022/11/28 03:31:00;;;;;;;65.85;28.60;;;;;;;7.64;100.00;100766.59;4916934;29;20495;-35
2022/11/28 03:33:29;;;;;;;72.10;28.63;;;;;;;7.65;100.00;100770.09;4917345;29;20039;-35
2022/11/28 03:36:08;;;;;;;70.10;28.48;;;;;;;7.66;100.00;100771.75;4903003;29;20053;-38
2022/11/28 03:38:40;;;;;;;75.50;29.52;;;;;;;7.67;100.00;100773.47;4930557;29;20479;-36
2022/11/28 03:41:13;;;;;;;69.13;30.77;;;;;;;7.69;100.00;100771.47;4898553;29;20153;-37
2022/11/28 03:43:42;;;;;;;74.35;31.30;;;;;;;7.69;100.00;100777.66;4899932;29;20047;-35
2022/11/28 03:46:11;;;;;;;71.10;30.15;;;;;;;7.69;100.00;100776.81;4916676;29;20032;-37
2022/11/28 03:48:44;;;;;;;75.25;30.73;;;;;;;7.69;100.00;100777.66;4884203;29;20024;-35
2022/11/28 03:51:29;;;;;;;73.35;30.42;;;;;;;7.69;100.00;100772.28;4897292;29;20460;-37
2022/11/28 03:54:07;;;;;;;70.95;29.92;;;;;;;7.69;100.00;100776.81;4884505;29;20017;-35
2022/11/28 03:56:44;;;;;;;71.90;30.33;;;;;;;7.69;100.00;100771.47;4912108;29;20033;-36
2022/11/28 03:59:20;;;;;;;72.75;29.08;;;;;;;7.70;100.00;100776.63;4914243;29;20785;-35
2022/11/28 04:02:02;;;;;;;66.68;27.40;;;;;;;7.70;100.00;100775.81;4940649;29;20099;-35
2022/11/28 04:04:57;;;;;;;61.72;28.25;;;;;;;7.68;100.00;100783.16;4899321;29;20040;-35
2022/11/28 04:07:36;;;;;;;63.03;28.05;;;;;;;7.64;100.00;100785.34;4894690;29;20048;-35
2022/11/28 04:10:08;;;;;;;67.70;28.92;;;;;;;7.66;100.00;100779.81;4899317;29;20030;-43
2022/11/28 04:12:36;;;;;;;69.65;29.35;;;;;;;7.63;100.00;100777.44;4881501;29;20044;-44
2022/11/28 04:15:08;;;;;;;70.72;29.55;;;;;;;7.64;100.00;100779.16;4923225;29;20091;-39
2022/11/28 04:17:46;;;;;;;68.43;29.02;;;;;;;7.62;100.00;100776.63;4883397;29;20030;-39
2022/11/28 04:20:15;;;;;;;70.55;26.83;;;;;;;7.65;100.00;100775.47;4916143;29;20099;-40
2022/11/28 04:22:48;;;;;;;75.57;28.05;;;;;;;7.66;100.00;100783.34;4898907;29;20468;-40
2022/11/28 04:25:15;;;;;;;74.05;28.77;;;;;;;7.62;100.00;100779.31;4903350;29;20036;-40
2022/11/28 04:27:46;;;;;;;71.68;29.48;;;;;;;7.61;100.00;100774.97;4898578;29;20111;-37
2022/11/28 04:30:12;;;;;;;72.57;29.00;;;;;;;7.62;100.00;100781.16;4928002;29;20036;-40
2022/11/28 04:32:40;;;;;;;77.28;28.80;;;;;;;7.61;100.00;100783.00;4915519;29;20114;-36
2022/11/28 04:35:06;;;;;;;;;;;;;;;7.61;100.00;100785.69;4898775;29;20052;-38
2022/11/28 04:37:33;;;;;;;67.05;27.13;;;;;;;7.64;100.00;100806.75;4915802;29;19962;-39
2022/11/28 04:39:59;;;;;;;68.80;29.17;;;;;;;7.62;100.00;100794.53;4930003;29;20021;-39
2022/11/28 04:42:48;;;;;;;71.50;27.92;;;;;;;7.63;100.00;100804.25;4898704;29;20028;-39
2022/11/28 04:45:15;;;;;;;69.30;28.27;;;;;;;7.63;100.00;100805.06;4896409;29;20039;-38
2022/11/28 04:47:42;;;;;;;70.50;28.10;;;;;;;7.63;100.00;100802.41;4898670;29;20238;-36
2022/11/28 04:50:08;;;;;;;67.85;27.70;;;;;;;7.63;100.00;100809.59;4898643;29;20028;-35
2022/11/28 04:52:51;;;;;;;63.22;26.83;;;;;;;7.63;100.00;100805.06;4914864;29;20535;-36
2022/11/28 04:55:22;;;;;;;67.15;27.50;;;;;;;7.63;100.00;100806.91;4898610;29;20444;-36
2022/11/28 04:57:52;;;;;;;70.35;28.05;;;;;;;7.63;100.00;100805.06;4915833;29;20040;-36
2022/11/28 05:00:19;;;;;;;75.13;28.80;;;;;;;7.63;100.00;100805.06;4897387;29;20104;-36
2022/11/28 05:02:46;;;;;;;75.50;28.42;;;;;;;7.65;100.00;100796.88;4895838;29;20047;-38
2022/11/28 05:05:23;;;;;;;85.97;31.55;;;;;;;7.65;100.00;100813.78;4897120;29;20020;-35
2022/11/28 05:07:49;;;;;;;84.75;30.88;;;;;;;7.64;100.00;100812.13;4915324;29;20040;-36
2022/11/28 05:10:14;;;;;;;85.43;31.33;;;;;;;7.65;100.00;100808.44;4898011;29;20140;-38
2022/11/28 05:12:40;;;;;;;93.82;32.65;;;;;;;7.65;100.00;100808.44;4914986;29;20123;-36
2022/11/28 05:15:06;;;;;;;93.53;33.58;;;;;;;7.67;100.00;100811.78;4908855;29;20091;-36
2022/11/28 05:17:31;;;;;;;90.88;34.30;;;;;;;7.66;100.00;100802.09;4898078;29;20035;-36
2022/11/28 05:19:57;;;;;;;95.97;33.25;;;;;;;7.66;100.00;100818.16;4905106;29;20392;-35
2022/11/28 05:22:22;;;;;;;97.00;35.30;;;;;;;7.67;100.00;100813.63;4914507;29;20471;-36
2022/11/28 05:24:47;;;;;;;102.10;34.80;;;;;;;7.67;100.00;100813.63;4915208;29;20036;-36
2022/11/28 05:27:13;;;;;;;96.35;33.55;;;;;;;7.66;100.00;100823.53;4914232;29;20047;-38
2022/11/28 05:29:42;;;;;;;100.60;34.85;;;;;;;7.67;100.00;100827.03;4914450;29;20456;-35
2022/11/28 05:32:08;;;;;;;110.72;35.70;;;;;;;7.68;100.00;100821.50;4908836;29;20020;-36
2022/11/28 05:34:34;;;;;;;118.20;37.28;;;;;;;7.69;100.00;100825.88;4915590;29;20044;-35
2022/11/28 05:36:59;;;;;;;119.90;38.10;;;;;;;7.67;100.00;100825.19;4904377;29;20075;-36
2022/11/28 05:39:25;;;;;;;124.13;39.10;;;;;;;7.69;100.00;100820.50;4914861;29;20051;-36
2022/11/28 05:41:51;;;;;;;117.40;36.28;;;;;;;7.69;100.00;100815.16;4897919;29;20566;-36
2022/11/28 05:44:16;;;;;;;115.10;37.20;;;;;;;7.72;100.00;100822.03;4897093;29;20028;-38
2022/11/28 05:46:41;;;;;;;124.63;37.95;;;;;;;7.72;100.00;100826.56;4896981;29;20107;-38
2022/11/28 05:49:07;;;;;;;124.28;38.83;;;;;;;7.72;100.00;100839.94;4902358;29;20024;-36
2022/11/28 05:51:32;;;;;;;135.50;41.38;;;;;;;7.68;100.00;100839.41;4912041;29;20029;-36
2022/11/28 05:53:58;;;;;;;141.70;39.65;;;;;;;7.70;100.00;100843.59;4906004;29;20024;-36
2022/11/28 05:56:23;;;;;;;139.10;38.78;;;;;;;7.70;100.00;100845.44;4912980;29;20024;-38
2022/11/28 05:58:49;;;;;;;134.02;37.25;;;;;;;7.69;100.00;100847.31;4906246;29;20033;-38
2022/11/28 06:01:21;;;;;;;142.13;38.65;;;;;;;7.68;100.00;100855.47;4887732;29;20048;-38
2022/11/28 06:03:46;;;;;;;141.98;40.00;;;;;;;7.65;100.00;100856.66;4912003;29;20032;-36
2022/11/28 06:06:17;;;;;;;145.45;40.50;;;;;;;7.63;100.00;100853.28;4895794;29;20029;-37
2022/11/28 06:08:44;;;;;;;153.88;41.30;;;;;;;7.67;100.00;100851.13;4907352;29;20036;-36
2022/11/28 06:11:11;;;;;;;156.07;39.47;;;;;;;7.66;100.00;100847.63;4900966;29;20048;-38
2022/11/28 06:13:36;;;;;;;145.52;41.33;;;;;;;7.64;100.00;100843.44;4895164;29;20031;-36
2022/11/28 06:16:05;;;;;;;158.68;41.20;;;;;;;7.63;100.00;100852.44;4907826;29;20444;-37
2022/11/28 06:18:30;;;;;;;146.13;41.13;;;;;;;7.64;100.00;100843.44;4912457;29;20035;-35
2022/11/28 06:20:55;;;;;;;169.52;41.25;;;;;;;7.61;100.00;100849.09;4888710;29;20085;-35
2022/11/28 06:23:21;;;;;;;165.15;43.10;;;;;;;7.60;100.00;100847.44;4888671;29;20167;-35
2022/11/28 06:25:46;;;;;;;159.35;41.50;;;;;;;7.61;100.00;100843.72;4913483;29;20035;-36
2022/11/28 06:28:11;;;;;;;164.50;43.72;;;;;;;7.63;100.00;100847.94;4910465;29;20415;-38
2022/11/28 06:30:37;;;;;;;169.38;42.75;;;;;;;7.61;100.00;100858.00;4897219;29;20157;-36
2022/11/28 06:33:02;;;;;;;169.20;41.58;;;;;;;7.60;100.00;100853.63;4914072;29;20036;-35
2022/11/28 06:35:28;;;;;;;174.38;44.70;;;;;;;7.61;100.00;100849.97;4910926;29;20467;-39
2022/11/28 06:37:53;;;;;;;189.52;45.00;;;;;;;7.62;100.00;100856.16;4914438;29;20401;-36
2022/11/28 06:40:18;;;;;;;162.25;42.55;;;;;;;7.62;100.00;100859.66;4911395;29;20387;-35
2022/11/28 06:42:44;;;;;;;178.65;42.65;;;;;;;7.63;100.00;100855.97;4911963;29;20538;-36
2022/11/28 06:45:09;;;;;;;195.77;42.28;;;;;;;7.64;100.00;100867.53;4912564;29;20043;-37
2022/11/28 06:47:35;;;;;;;189.98;43.40;;;;;;;7.63;100.00;100864.00;4896020;29;20028;-37
2022/11/28 06:50:00;;;;;;;202.02;44.33;;;;;;;7.65;100.00;100861.16;4925653;29;20491;-38
2022/11/28 06:52:25;;;;;;;190.85;42.92;;;;;;;7.66;100.00;100863.69;4904918;29;20028;-36
2022/11/28 06:54:51;;;;;;;204.60;44.03;;;;;;;7.67;100.00;100861.84;4911317;29;20111;-37
2022/11/28 06:57:16;;;;;;;193.07;43.75;;;;;;;7.66;100.00;100863.69;4908813;29;20418;-35
2022/11/28 06:59:41;;;;;;;177.57;41.13;;;;;;;7.69;100.00;100863.38;4913995;29;20499;-36
2022/11/28 07:02:08;;;;;;;181.30;44.53;;;;;;;7.70;100.00;100870.41;4911902;29;20111;-37
2022/11/28 07:04:33;;;;;;;198.07;45.35;;;;;;;7.70;100.00;100874.91;4911766;29;20071;-36
2022/11/28 07:06:59;;;;;;;197.95;45.70;;;;;;;7.72;100.00;100875.59;4896861;29;20052;-35
2022/11/28 07:09:24;;;;;;;196.07;43.33;;;;;;;7.71;100.00;100876.59;4913911;29;20452;-36
2022/11/28 07:11:49;;;;;;;209.73;44.45;;;;;;;7.73;100.00;100881.78;4912998;29;20032;-36
2022/11/28 07:14:15;;;;;;;190.35;43.20;;;;;;;7.75;100.00;100885.16;4895956;29;20111;-36
2022/11/28 07:16:40;;;;;;;205.45;45.53;;;;;;;7.77;100.00;100881.31;4913091;29;20106;-36
2022/11/28 07:19:05;;;;;;;191.77;43.53;;;;;;;7.80;100.00;100882.81;4896856;29;20036;-38
2022/11/28 07:21:31;;;;;;;187.85;42.30;;;;;;;7.82;100.00;100878.13;4913191;29;20472;-36
2022/11/28 07:23:58;;;;;;;188.63;41.60;;;;;;;7.83;100.00;100877.13;4911979;29;20064;-38
2022/11/28 07:26:23;;;;;;;183.45;42.30;;;;;;;7.86;100.00;100879.50;4913678;29;20540;-36
2022/11/28 07:28:49;;;;;;;184.35;44.05;;;;;;;7.86;100.00;100884.84;4913706;29;20032;-37
2022/11/28 07:31:20;;;;;;;195.43;43.03;;;;;;;7.85;100.00;100888.53;4913687;29;20115;-37
2022/11/28 07:33:48;;;;;;;194.15;43.55;;;;;;;7.88;100.00;100896.25;4908686;29;20032;-37
2022/11/28 07:36:17;;;;;;;206.63;43.38;;;;;;;7.88;100.00;100894.41;4903624;29;20171;-35
2022/11/28 07:38:46;;;;;;;205.23;41.78;;;;;;;7.88;100.00;100893.56;4908938;29;20078;-37
2022/11/28 07:41:12;;;;;;;213.63;42.78;;;;;;;7.90;100.00;100896.94;4901145;29;20036;-36
2022/11/28 07:43:42;;;;;;;198.63;41.67;;;;;;;7.92;100.00;100897.59;4909178;29;20041;-38
2022/11/28 07:46:11;;;;;;;204.60;41.58;;;;;;;7.93;100.00;100901.97;4899363;29;20059;-39
2022/11/28 07:48:36;;;;;;;202.20;41.45;;;;;;;7.93;100.00;100896.59;4913780;29;20089;-37
2022/11/28 07:51:07;;;;;;;191.40;40.70;;;;;;;7.98;100.00;100899.63;4899246;29;20040;-37
2022/11/28 07:53:32;;;;;;;210.93;44.88;;;;;;;7.98;100.00;100910.34;4910524;29;20207;-35
2022/11/28 07:56:02;;;;;;;224.75;44.72;;;;;;;7.97;100.00;100911.34;4899137;29;20136;-36
2022/11/28 07:58:28;;;;;;;233.70;42.25;;;;;;;7.98;100.00;100910.34;4911241;29;20682;-36
2022/11/28 08:00:53;;;;;;;221.45;42.50;;;;;;;8.01;100.00;100917.22;4909876;29;20091;-36
2022/11/28 08:03:19;;;;;;;217.15;42.75;;;;;;;8.01;100.00;100917.22;4909250;29;20032;-37
2022/11/28 08:05:48;;;;;;;220.43;44.22;;;;;;;8.00;100.00;100916.38;4904671;29;20028;-36
2022/11/28 08:08:17;;;;;;;220.13;41.60;;;;;;;8.01;100.00;100919.91;4887235;29;20032;-36
2022/11/28 08:10:43;;;;;;;228.25;42.72;;;;;;;8.02;100.00;100926.94;4914643;29;20036;-38
2022/11/28 08:13:09;;;;;;;243.65;44.45;;;;;;;7.97;100.00;100930.09;4916362;29;20036;-39
2022/11/28 08:15:38;;;;;;;257.40;44.75;;;;;;;7.99;100.00;100922.75;4913131;29;20040;-37
2022/11/28 08:18:05;;;;;;;248.18;44.92;;;;;;;8.02;100.00;100921.56;4915626;29;20028;-38
2022/11/28 08:20:30;;;;;;;265.60;47.95;;;;;;;8.02;100.00;100927.75;4912149;29;20039;-36
2022/11/28 08:22:56;;;;;;;253.85;44.33;;;;;;;8.05;100.00;100927.44;4914214;29;20372;-38
2022/11/28 08:25:21;;;;;;;241.43;46.22;;;;;;;8.09;100.00;100922.59;4928348;29;20115;-38
2022/11/28 08:27:47;;;;;;;270.55;45.75;;;;;;;8.13;100.00;100923.94;4905256;29;20391;-39
2022/11/28 08:30:12;;;;;;;251.25;45.28;;;;;;;8.16;100.00;100926.28;4905170;29;20467;-38
2022/11/28 08:32:37;;;;;;;249.10;44.65;;;;;;;8.21;100.00;100921.28;4908845;29;20047;-39
2022/11/28 08:35:03;;;;;;;256.50;46.30;;;;;;;8.25;100.00;100936.03;4905136;29;20124;-38
2022/11/28 08:37:28;;;;;;;249.80;45.40;;;;;;;8.26;100.00;100928.81;4897537;29;20398;-39
2022/11/28 08:39:54;;;;;;;237.63;44.65;;;;;;;8.25;100.00;100930.69;4909620;29;20032;-37
2022/11/28 08:42:20;;;;;;;246.02;43.70;;;;;;;8.29;100.00;100928.50;4908354;29;20189;-40
2022/11/28 08:44:45;;;;;;;218.65;42.85;;;;;;;8.35;100.00;100925.16;4915609;29;20039;-37
2022/11/28 08:47:10;;;;;;;223.57;42.67;;;;;;;8.38;100.00;100922.16;4912793;29;20020;-39
2022/11/28 08:49:36;;;;;;;234.05;44.65;;;;;;;8.37;100.00;100915.09;4916680;29;20055;-36
2022/11/28 08:52:03;;;;;;;226.07;43.22;;;;;;;8.41;100.00;100912.97;4916280;29;20032;-38
2022/11/28 08:54:28;;;;;;;224.07;41.88;;;;;;;8.44;100.00;100921.50;4915994;29;20035;-38
2022/11/28 08:56:53;;;;;;;225.57;40.88;;;;;;;8.48;100.00;100916.69;4908649;29;20035;-35
2022/11/28 08:59:19;;;;;;;232.90;43.08;;;;;;;8.49;100.00;100924.53;4916088;29;20040;-36
2022/11/28 09:01:44;;;;;;;210.60;42.25;;;;;;;8.54;100.00;100927.56;4896571;29;20024;-38
2022/11/28 09:04:09;;;;;;;189.05;40.90;;;;;;;8.60;100.00;100935.94;4928731;29;20042;-39
2022/11/28 09:06:38;;;;;;;193.52;40.80;;;;;;;8.65;100.00;100944.34;4903376;29;20068;-38
2022/11/28 09:09:03;;;;;;;191.20;40.90;;;;;;;8.57;100.00;100954.06;4915203;29;20064;-39
2022/11/28 09:11:28;;;;;;;198.00;41.67;;;;;;;8.61;100.00;100943.84;4892665;29;20464;-38
2022/11/28 09:13:54;;;;;;;189.82;43.05;;;;;;;8.59;100.00;100940.47;4905236;29;20452;-37
2022/11/28 09:16:20;;;;;;;207.95;44.67;;;;;;;8.62;100.00;100931.25;4915425;29;20031;-38
2022/11/28 09:18:45;;;;;;;198.82;42.40;;;;;;;8.63;100.00;100932.94;4909832;29;20048;-38
2022/11/28 09:21:13;;;;;;;210.95;44.05;;;;;;;8.65;100.00;100933.59;4905779;29;20118;-39
2022/11/28 09:23:40;;;;;;;194.55;42.75;;;;;;;8.72;100.00;100940.81;4908805;29;20092;-39
2022/11/28 09:26:15;;;;;;;215.15;43.30;;;;;;;8.69;100.00;100942.97;4920916;29;20028;-36
2022/11/28 09:28:41;;;;;;;199.93;44.33;;;;;;;8.72;100.00;100945.34;4906330;29;20117;-35
2022/11/28 09:31:07;;;;;;;193.65;42.83;;;;;;;8.74;100.00;100941.50;4901762;29;20360;-36
2022/11/28 09:33:33;;;;;;;193.18;42.22;;;;;;;8.71;100.00;100941.81;4903915;29;20032;-37
2022/11/28 09:36:04;;;;;;;206.35;42.90;;;;;;;8.74;100.00;100951.38;4907905;29;20059;-35
2022/11/28 09:38:29;;;;;;;227.57;44.58;;;;;;;8.76;100.00;100942.16;4903601;29;20043;-36
2022/11/28 09:40:54;;;;;;;212.38;41.15;;;;;;;8.81;100.00;100943.50;4900843;29;20664;-36
2022/11/28 09:43:22;;;;;;;193.15;40.53;;;;;;;8.87;100.00;100948.19;4901965;29;20258;-39
2022/11/28 09:45:52;;;;;;;180.40;40.70;;;;;;;8.84;100.00;100954.72;4906248;29;20186;-36
2022/11/28 09:48:25;;;;;;;184.90;40.45;;;;;;;8.82;100.00;100956.78;4897437;29;20051;-38
2022/11/28 09:50:55;;;;;;;178.80;40.05;;;;;;;8.82;100.00;100956.78;4892030;29;20024;-37
2022/11/28 09:53:25;;;;;;;186.52;40.08;;;;;;;8.77;100.00;100959.13;4897635;29;20046;-37
2022/11/28 09:55:53;;;;;;;193.82;43.15;;;;;;;8.77;100.00;100959.13;4896474;29;20046;-37
2022/11/28 09:58:38;;;;;;;192.43;44.45;;;;;;;8.80;100.00;100969.50;4883895;29;20032;-36
2022/11/28 10:01:09;;;;;;;176.65;41.63;;;;;;;8.83;100.00;100971.84;4886947;29;20458;-35
2022/11/28 10:03:35;;;;;;;192.90;43.47;;;;;;;8.81;100.00;100964.97;4901401;29;20076;-36
2022/11/28 10:06:00;;;;;;;187.02;44.10;;;;;;;8.83;100.00;100958.44;4909213;29;20040;-38
2022/11/28 10:08:37;;;;;;;190.55;43.60;;;;;;;8.86;100.00;100976.03;4911039;29;20044;-38
2022/11/28 10:11:18;;;;;;;231.67;48.20;;;;;;;8.91;100.00;100974.53;4893888;29;20038;-35
2022/11/28 10:13:55;;;;;;;202.73;48.20;;;;;;;8.92;100.00;100968.16;4918165;29;20039;-36
2022/11/28 10:16:35;;;;;;;226.52;49.92;;;;;;;8.98;100.00;100967.50;4904453;29;20066;-35
2022/11/28 10:19:04;;;;;;;216.25;49.13;;;;;;;8.99;100.00;100968.31;4900127;29;20033;-35
2022/11/28 10:21:32;;;;;;;199.68;48.70;;;;;;;8.95;100.00;100972.34;4911024;29;20028;-35
2022/11/28 10:24:02;;;;;;;209.98;48.67;;;;;;;8.97;100.00;100971.16;4910274;29;20046;-36
2022/11/28 10:26:36;;;;;;;207.77;46.60;;;;;;;9.07;100.00;100964.81;4881659;29;20155;-38
2022/11/28 10:29:28;;;;;;;176.25;43.78;;;;;;;9.10;100.00;100970.66;4910226;29;20443;-36
2022/11/28 10:31:56;;;;;;;166.60;41.92;;;;;;;9.16;100.00;100969.13;4922502;29;20076;-37
2022/11/28 10:34:44;;;;;;;152.63;42.85;;;;;;;9.17;100.00;100976.22;4907437;29;20060;-35
2022/11/28 10:37:14;;;;;;;;;;;;;;;9.26;100.00;100977.84;4879414;29;20164;-37
2022/11/28 10:39:43;;;;;;;138.93;37.10;;;;;;;9.29;100.00;100980.19;4888372;29;19994;-37
2022/11/28 10:42:28;;;;;;;;;;;;;;;9.44;100.00;100977.66;4906846;29;20043;-36
2022/11/28 10:45:09;;;;;;;127.65;37.67;;;;;;;9.54;100.00;100988.22;4910103;29;19938;-38
2022/11/28 10:47:58;;;;;;;141.60;38.28;;;;;;;9.74;100.00;100984.16;4910974;29;20032;-38
2022/11/28 10:50:32;;;;;;;126.07;36.47;;;;;;;9.84;100.00;100987.44;4901566;29;20024;-36
2022/11/28 10:53:12;;;;;;;112.28;33.50;;;;;;;10.01;100.00;100990.09;4918275;29;20021;-35
2022/11/28 10:55:58;;;;;;;107.57;33.17;;;;;;;9.95;100.00;100990.78;4912150;29;20373;-38
2022/11/28 10:58:59;;;;;;;99.20;33.70;;;;;;;10.02;100.00;100987.22;4913827;29;20028;-36
2022/11/28 11:01:36;;;;;;;96.97;34.15;;;;;;;10.07;100.00;101000.16;4887731;29;20054;-36
2022/11/28 11:04:02;;;;;;;87.37;31.20;;;;;;;10.00;100.00;100994.63;4907689;29;20473;-38
2022/11/28 11:06:27;;;;;;;82.20;30.48;;;;;;;10.03;100.00;100996.97;4896720;29;20032;-36
2022/11/28 11:08:53;;;;;;;83.32;30.17;;;;;;;9.91;100.00;101000.22;4914074;29;20499;-37
2022/11/28 11:11:27;;;;;;;82.57;30.35;;;;;;;9.78;100.00;100998.06;4913992;29;20036;-36
2022/11/28 11:14:05;;;;;;;90.32;29.23;;;;;;;9.79;100.00;100997.88;4908492;29;20075;-35
2022/11/28 11:16:49;;;;;;;81.55;30.75;;;;;;;9.70;100.00;101001.63;4913989;29;20484;-38
2022/11/28 11:19:28;;;;;;;80.53;31.15;;;;;;;9.67;100.00;100993.91;4914027;29;20020;-38